地図

経路データ

SID SEASON NUMBER BASIN SUBBASIN NAME ISO_TIME NATURE LAT LON WMO_WIND WMO_PRES WMO_AGENCY TRACK_TYPE DIST2LAND LANDFALL IFLAG USA_AGENCY USA_ATCF_ID USA_LAT USA_LON USA_RECORD USA_STATUS USA_WIND USA_PRES USA_SSHS USA_R34_NE USA_R34_SE USA_R34_SW USA_R34_NW USA_R50_NE USA_R50_SE USA_R50_SW USA_R50_NW USA_R64_NE USA_R64_SE USA_R64_SW USA_R64_NW USA_POCI USA_ROCI USA_RMW USA_EYE TOKYO_LAT TOKYO_LON TOKYO_GRADE TOKYO_WIND TOKYO_PRES TOKYO_R50_DIR TOKYO_R50_LONG TOKYO_R50_SHORT TOKYO_R30_DIR TOKYO_R30_LONG TOKYO_R30_SHORT TOKYO_LAND CMA_LAT CMA_LON CMA_CAT CMA_WIND CMA_PRES HKO_LAT HKO_LON HKO_CAT HKO_WIND HKO_PRES NEWDELHI_LAT NEWDELHI_LON NEWDELHI_GRADE NEWDELHI_WIND NEWDELHI_PRES NEWDELHI_CI NEWDELHI_DP NEWDELHI_POCI REUNION_LAT REUNION_LON REUNION_TYPE REUNION_WIND REUNION_PRES REUNION_TNUM REUNION_CI REUNION_RMW REUNION_R34_NE REUNION_R34_SE REUNION_R34_SW REUNION_R34_NW REUNION_R50_NE REUNION_R50_SE REUNION_R50_SW REUNION_R50_NW REUNION_R64_NE REUNION_R64_SE REUNION_R64_SW REUNION_R64_NW BOM_LAT BOM_LON BOM_TYPE BOM_WIND BOM_PRES BOM_TNUM BOM_CI BOM_RMW BOM_R34_NE BOM_R34_SE BOM_R34_SW BOM_R34_NW BOM_R50_NE BOM_R50_SE BOM_R50_SW BOM_R50_NW BOM_R64_NE BOM_R64_SE BOM_R64_SW BOM_R64_NW BOM_ROCI BOM_POCI BOM_EYE BOM_POS_METHOD BOM_PRES_METHOD NADI_LAT NADI_LON NADI_CAT NADI_WIND NADI_PRES WELLINGTON_LAT WELLINGTON_LON WELLINGTON_WIND WELLINGTON_PRES DS824_LAT DS824_LON DS824_STAGE DS824_WIND DS824_PRES TD9636_LAT TD9636_LON TD9636_STAGE TD9636_WIND TD9636_PRES TD9635_LAT TD9635_LON TD9635_WIND TD9635_PRES TD9635_ROCI NEUMANN_LAT NEUMANN_LON NEUMANN_CLASS NEUMANN_WIND NEUMANN_PRES MLC_LAT MLC_LON MLC_CLASS MLC_WIND MLC_PRES USA_GUST BOM_GUST BOM_GUST_PER REUNION_GUST REUNION_GUST_PER USA_SEAHGT USA_SEARAD_NE USA_SEARAD_SE USA_SEARAD_SW USA_SEARAD_NW STORM_SPEED STORM_DIR
1895227N18130 1895 24 WP MM NOT_NAMED 1895-08-14 16:00:00 NR 17.8000 129.700 main 715 713 __________O___ -1 17.8000 129.700 7 3 321
1895227N18130 1895 24 WP MM NOT_NAMED 1895-08-14 18:00:00 NR 17.8688 129.645 main 713 713 __________P___ -1 17.8688 129.645 7 3 321
1895227N18130 1895 24 WP MM NOT_NAMED 1895-08-14 21:00:00 NR 17.9712 129.559 main 720 712 __________P___ -1 17.9712 129.559 7 3 319
1895227N18130 1895 24 WP MM NOT_NAMED 1895-08-15 00:00:00 NR 18.0716 129.461 main 719 711 __________P___ -1 18.0716 129.461 7 3 314
1895227N18130 1895 24 WP MM NOT_NAMED 1895-08-15 03:00:00 NR 18.1686 129.344 main 711 711 __________P___ -1 18.1686 129.344 7 3 310
1895227N18130 1895 24 WP MM NOT_NAMED 1895-08-15 04:00:00 NR 18.2000 129.300 main 711 703 __________O___ -1 18.2000 129.300 7 3 305
1895227N18130 1895 24 WP MM NOT_NAMED 1895-08-15 06:00:00 NR 18.2615 129.204 main 710 703 __________P___ -1 18.2615 129.204 7 3 303
1895227N18130 1895 24 WP MM NOT_NAMED 1895-08-15 09:00:00 NR 18.3535 129.046 main 703 695 __________P___ -1 18.3535 129.046 7 4 302
1895227N18130 1895 24 WP MM NOT_NAMED 1895-08-15 12:00:00 NR 18.4510 128.887 main 696 675 __________P___ -1 18.4510 128.887 7 4 306
1895227N18130 1895 24 WP MM NOT_NAMED 1895-08-15 15:00:00 NR 18.5600 128.742 main 675 675 __________P___ -1 18.5600 128.742 7 3 310
1895227N18130 1895 24 WP MM NOT_NAMED 1895-08-15 16:00:00 NR 18.6000 128.700 main 675 665 __________O___ -1 18.6000 128.700 7 3 323
1895227N18130 1895 24 WP MM NOT_NAMED 1895-08-15 18:00:00 NR 18.6859 128.638 main 665 665 __________P___ -1 18.6859 128.638 7 3 330
1895227N18130 1895 24 WP MM NOT_NAMED 1895-08-15 21:00:00 NR 18.8273 128.564 main 665 655 __________P___ -1 18.8273 128.564 7 3 336
1895227N18130 1895 24 WP MM NOT_NAMED 1895-08-16 00:00:00 NR 18.9811 128.499 main 656 647 __________P___ -1 18.9811 128.499 7 3 338
1895227N18130 1895 24 WP MM NOT_NAMED 1895-08-16 03:00:00 NR 19.1442 128.428 main 647 648 __________P___ -1 19.1442 128.428 7 4 335
1895227N18130 1895 24 WP MM NOT_NAMED 1895-08-16 04:00:00 NR 19.2000 128.400 main 648 639 __________O___ -1 19.2000 128.400 7 4 330
1895227N18130 1895 24 WP MM NOT_NAMED 1895-08-16 06:00:00 NR 19.3083 128.328 main 639 630 __________P___ -1 19.3083 128.328 7 4 327
1895227N18130 1895 24 WP MM NOT_NAMED 1895-08-16 09:00:00 NR 19.4771 128.208 main 632 624 __________P___ -1 19.4771 128.208 7 4 325
1895227N18130 1895 24 WP MM NOT_NAMED 1895-08-16 12:00:00 NR 19.6533 128.077 main 626 608 __________P___ -1 19.6533 128.077 7 4 325
1895227N18130 1895 24 WP MM NOT_NAMED 1895-08-16 15:00:00 NR 19.8371 127.944 main 608 608 __________P___ -1 19.8371 127.944 7 4 326
1895227N18130 1895 24 WP MM NOT_NAMED 1895-08-16 16:00:00 NR 19.9000 127.900 main 611 604 __________O___ -1 19.9000 127.900 7 5 326
1895227N18130 1895 24 WP MM NOT_NAMED 1895-08-16 18:00:00 NR 20.0276 127.806 main 604 597 __________P___ -1 20.0276 127.806 7 5 326
1895227N18130 1895 24 WP MM NOT_NAMED 1895-08-16 21:00:00 NR 20.2254 127.665 main 601 589 __________P___ -1 20.2254 127.665 7 5 328
1895227N18130 1895 24 WP MM NOT_NAMED 1895-08-17 00:00:00 NR 20.4280 127.535 main 589 588 __________P___ -1 20.4280 127.535 7 5 331
1895227N18130 1895 24 WP MM NOT_NAMED 1895-08-17 03:00:00 NR 20.6321 127.428 main 588 588 __________P___ -1 20.6321 127.428 7 5 336
1895227N18130 1895 24 WP MM NOT_NAMED 1895-08-17 04:00:00 NR 20.7000 127.400 main 593 593 __________O___ -1 20.7000 127.400 7 4 342
1895227N18130 1895 24 WP MM NOT_NAMED 1895-08-17 06:00:00 NR 20.8307 127.355 main 597 593 __________P___ -1 20.8307 127.355 7 4 347
1895227N18130 1895 24 WP MM NOT_NAMED 1895-08-17 09:00:00 NR 21.0266 127.313 main 598 598 __________P___ -1 21.0266 127.313 7 4 351
1895227N18130 1895 24 WP MM NOT_NAMED 1895-08-17 12:00:00 NR 21.2254 127.296 main 609 609 __________P___ -1 21.2254 127.296 7 4 358
1895227N18130 1895 24 WP MM NOT_NAMED 1895-08-17 15:00:00 NR 21.4300 127.297 main 621 621 __________P___ -1 21.4300 127.297 7 4 0
1895227N18130 1895 24 WP MM NOT_NAMED 1895-08-17 16:00:00 NR 21.5000 127.300 main 627 626 __________O___ -1 21.5000 127.300 7 4 7
1895227N18130 1895 24 WP MM NOT_NAMED 1895-08-17 18:00:00 NR 21.6522 127.303 main 626 620 __________P___ -1 21.6522 127.303 7 5 4
1895227N18130 1895 24 WP MM NOT_NAMED 1895-08-17 21:00:00 NR 21.8869 127.319 main 620 612 __________P___ -1 21.8869 127.319 7 5 5
1895227N18130 1895 24 WP MM NOT_NAMED 1895-08-18 00:00:00 NR 22.1183 127.348 main 612 612 __________P___ -1 22.1183 127.348 7 5 8
1895227N18130 1895 24 WP MM NOT_NAMED 1895-08-18 03:00:00 NR 22.3338 127.386 main 612 607 __________P___ -1 22.3338 127.386 7 4 9
1895227N18130 1895 24 WP MM NOT_NAMED 1895-08-18 04:00:00 NR 22.4000 127.400 main 607 603 __________O___ -1 22.4000 127.400 7 4 13
1895227N18130 1895 24 WP MM NOT_NAMED 1895-08-18 06:00:00 NR 22.5145 127.420 main 603 599 __________P___ -1 22.5145 127.420 7 3 13
1895227N18130 1895 24 WP MM NOT_NAMED 1895-08-18 09:00:00 NR 22.6672 127.456 main 604 600 __________P___ -1 22.6672 127.456 7 3 15
1895227N18130 1895 24 WP MM NOT_NAMED 1895-08-18 12:00:00 NR 22.8083 127.504 main 600 597 __________P___ -1 22.8083 127.504 7 3 20
1895227N18130 1895 24 WP MM NOT_NAMED 1895-08-18 15:00:00 NR 22.9503 127.572 main 603 603 __________P___ -1 22.9503 127.572 7 3 24
1895227N18130 1895 24 WP MM NOT_NAMED 1895-08-18 16:00:00 NR 23.0000 127.600 main 603 600 __________O___ -1 23.0000 127.600 7 3 28
1895227N18130 1895 24 WP MM NOT_NAMED 1895-08-18 18:00:00 NR 23.1031 127.661 main 610 607 __________P___ -1 23.1031 127.661 7 4 31
1895227N18130 1895 24 WP MM NOT_NAMED 1895-08-18 21:00:00 NR 23.2638 127.771 main 614 611 __________P___ -1 23.2638 127.771 7 4 33
1895227N18130 1895 24 WP MM NOT_NAMED 1895-08-19 00:00:00 NR 23.4375 127.901 main 621 619 __________P___ -1 23.4375 127.901 7 4 35
1895227N18130 1895 24 WP MM NOT_NAMED 1895-08-19 03:00:00 NR 23.6304 128.048 main 627 634 __________P___ -1 23.6304 128.048 7 5 35
1895227N18130 1895 24 WP MM NOT_NAMED 1895-08-19 04:00:00 NR 23.7000 128.100 main 634 631 __________O___ -1 23.7000 128.100 7 5 32
1895227N18130 1895 24 WP MM NOT_NAMED 1895-08-19 06:00:00 NR 23.8468 128.195 main 641 639 __________P___ -1 23.8468 128.195 7 5 30
1895227N18130 1895 24 WP MM NOT_NAMED 1895-08-19 09:00:00 NR 24.0859 128.350 main 644 652 __________P___ -1 24.0859 128.350 7 6 31
1895227N18130 1895 24 WP MM NOT_NAMED 1895-08-19 12:00:00 NR 24.3422 128.525 main 661 659 __________P___ -1 24.3422 128.525 7 6 33
1895227N18130 1895 24 WP MM NOT_NAMED 1895-08-19 15:00:00 NR 24.6095 128.726 main 677 677 __________P___ -1 24.6095 128.726 7 7 35
1895227N18130 1895 24 WP MM NOT_NAMED 1895-08-19 16:00:00 NR 24.7000 128.800 main 686 686 __________O___ -1 24.7000 128.800 7 7 39
1895227N18130 1895 24 WP MM NOT_NAMED 1895-08-19 18:00:00 NR 24.8751 128.963 main 701 674 __________P___ -1 24.8751 128.963 7 7 42
1895227N18130 1895 24 WP MM NOT_NAMED 1895-08-19 21:00:00 NR 25.1439 129.233 main 674 636 __________P___ -1 25.1439 129.233 7 7 43
1895227N18130 1895 24 WP MM NOT_NAMED 1895-08-20 00:00:00 NR 25.4201 129.520 main 636 598 __________P___ -1 25.4201 129.520 7 8 43
1895227N18130 1895 24 WP MM NOT_NAMED 1895-08-20 03:00:00 NR 25.7038 129.807 main 598 585 __________P___ -1 25.7038 129.807 7 8 42
1895227N18130 1895 24 WP MM NOT_NAMED 1895-08-20 04:00:00 NR 25.8000 129.900 main 585 561 __________O___ -1 25.8000 129.900 7 7 40
1895227N18130 1895 24 WP MM NOT_NAMED 1895-08-20 06:00:00 NR 25.9862 130.070 main 561 526 __________P___ -1 25.9862 130.070 7 7 39
1895227N18130 1895 24 WP MM NOT_NAMED 1895-08-20 09:00:00 NR 26.2719 130.319 main 526 491 __________P___ -1 26.2719 130.319 7 7 37
1895227N18130 1895 24 WP MM NOT_NAMED 1895-08-20 12:00:00 NR 26.5706 130.565 main 491 457 __________P___ -1 26.5706 130.565 7 8 36
1895227N18130 1895 24 WP MM NOT_NAMED 1895-08-20 15:00:00 NR 26.8886 130.815 main 457 446 __________P___ -1 26.8886 130.815 7 8 35
1895227N18130 1895 24 WP MM NOT_NAMED 1895-08-20 16:00:00 NR 27.0000 130.900 main 446 425 __________O___ -1 27.0000 130.900 7 8 34
1895227N18130 1895 24 WP MM NOT_NAMED 1895-08-20 18:00:00 NR 27.2315 131.074 main 425 383 __________P___ -1 27.2315 131.074 7 9 33
1895227N18130 1895 24 WP MM NOT_NAMED 1895-08-20 21:00:00 NR 27.5973 131.344 main 383 345 __________P___ -1 27.5973 131.344 7 9 33
1895227N18130 1895 24 WP MM NOT_NAMED 1895-08-21 00:00:00 NR 27.9788 131.621 main 345 312 __________P___ -1 27.9788 131.621 7 9 33
1895227N18130 1895 24 WP MM NOT_NAMED 1895-08-21 03:00:00 NR 28.3692 131.905 main 312 305 __________P___ -1 28.3692 131.905 7 9 33
1895227N18130 1895 24 WP MM NOT_NAMED 1895-08-21 04:00:00 NR 28.5000 132.000 main 305 __________O___ -1 28.5000 132.000 7 9 31

デジタル台風データ・検索

IBTrACS Databaseについて

本データベースは、米国NOAAが公開する1842年以降の世界の熱帯低気圧のベストトラックデータアーカイブInternational Best Track Archive for Climate Stewardship (IBTrACS)を、ウェブで閲覧しやすい形式に変換したものです。

最終更新日:2021-12-01